Главная страница
METAR-TAF:

METAR-TAF

Аэропорты :

Могилёв, Белоруссия

широта: 53-57-18N, долгота: 030-05-42E, высота над уровнем моря: 194 м

Текущие метеонаблюдения

Эта сводка был подготовлена 20 минут назад, в 10:00 UTC
Ветер 4 Узел от западный-юго-западный
Температура -7°C
Влажность 79%
Давление 1018 hPa
Видимость 10 км и более
Нет облачности ниже 1500 м, и нет кучево-дождевой облачности

METAR: UMOO 221000Z 25002MPS CAVOK M07/M10 Q1018 R31/850938 NOSIG

Время: 13:20 (10:20 UTC)

Прогноз

Эта сводка был подготовлена 2 часа и 20 минут назад, в 08:00 UTC
Прогноз действительный с 22-го 09 UTC до 22-го 18 UTC
Ветер 4 Узел переменных направлений
Видимость: 7000 м
Рассеянная облачность на высоте 1200 фута
временами
С 22-го 09 UTC до 22-го 18 UTC
Ветер 10 Узел от западный
Видимость: 3000 м
Рассеянная облачность на высоте 500 фута
дымка

TAF: UMOO 220800Z 2209/2218 VRB02MPS 7000 BKN012 TEMPO 2209/2218 27005MPS 3000 BR BKN005

Метеонаблюдения и прогнозы для более 4000 аэропортов (сводки METAR и TAF).

Имеющиеся станции представлены на карте желтыми и красными точками.

Чтобы увидеть название станции, наведите на нее мышь.

Затем щелкните, чтобы увидеть метеонаблюдения и метеопрогнозы.

Управление картой: чтобы увеличить масштаб, щелкните зеленые кнопки с черным крестиком; чтобы уменьшить масштаб, щелкните зеленую кнопку с тире; для просмотра соседних карт щелкайте зеленые стрелки.


METAR-TAF: